Time;durP1;ratioP1;P1;durP2;ratioP2;P2;SDS_P1;SDS_P2;PMS_P1;PMS_P2;Temp;Humidity;BMP_temperature;BMP_pressure;BME280_temperature;BME280_humidity;BME280_pressure;Samples;Min_cycle;Max_cycle;Signal;HPM_P1;HPM_P2
2023/03/06 00:00:45;;;;;;;;;;;;;;;-1.52;91.91;95647.50;109120;1274;22496;-82
2023/03/06 00:03:21;;;;;;;;;;;;;;;-1.50;91.65;95647.80;109066;1266;22539;-82
2023/03/06 00:05:50;;;;;;;;;;;;;;;-1.49;91.72;95649.27;109122;1274;23778;-82
2023/03/06 00:08:19;;;;;;;;;;;;;;;-1.49;91.72;95644.39;109104;1274;22515;-82
2023/03/06 00:10:48;;;;;;;;;;;;;;;-1.49;91.75;95642.98;109059;1273;22514;-82
2023/03/06 00:13:18;;;;;;;;;;;;;;;-1.50;91.72;95644.00;109112;1274;23981;-82
2023/03/06 00:15:48;;;;;;;;;;;;;;;-1.57;91.78;95645.20;109116;1274;22496;-82
2023/03/06 00:18:17;;;;;;;;;;;;;;;-1.67;91.96;95641.68;109095;1274;25206;-83
2023/03/06 00:20:46;;;;;;;;;;;;;;;-1.75;92.29;95642.13;109075;1274;22587;-82
2023/03/06 00:23:16;;;;;;;;;;;;;;;-1.85;92.65;95642.45;109057;1274;22531;-83
2023/03/06 00:25:45;;;;;;;;;;;;;;;-1.92;92.68;95643.70;109116;1274;22498;-83
2023/03/06 00:28:16;;;;;;;;;;;;;;;-1.94;92.81;95643.20;109122;1269;22601;-83
2023/03/06 00:30:46;;;;;;;;;;;;;;;-1.99;93.01;95645.44;109096;1274;23853;-83
2023/03/06 00:33:15;;;;;;;;;;;;;;;-1.96;93.09;95650.29;109121;1269;22502;-83
2023/03/06 00:35:44;;;;;;;;;;;;;;;-1.93;93.17;95652.61;109079;1260;22548;-82
2023/03/06 00:38:14;;;;;;;;;;;;;;;-1.94;93.23;95645.83;109111;1272;22531;-83
2023/03/06 00:40:43;;;;;;;;;;;;;;;-1.94;93.34;95646.77;109081;1273;22499;-83
2023/03/06 00:43:12;;;;;;;;;;;;;;;-2.00;93.72;95646.30;109062;1271;22493;-83
2023/03/06 00:45:42;;;;;;;;;;;;;;;-2.02;93.37;95648.42;109082;1273;24972;-83
2023/03/06 00:48:11;;;;;;;;;;;;;;;-2.00;93.45;95648.46;109059;1271;22482;-83
2023/03/06 00:50:40;;;;;;;;;;;;;;;-1.99;93.38;95648.44;109035;1274;22629;-83
2023/03/06 00:53:12;;;;;;;;;;;;;;;-1.97;93.50;95646.74;109095;1274;22502;-83
2023/03/06 00:55:43;;;;;;;;;;;;;;;-2.00;93.67;95649.58;109103;1272;22496;-83
2023/03/06 00:58:13;;;;;;;;;;;;;;;-2.00;93.55;95645.77;109107;1270;25252;-82
2023/03/06 01:00:42;;;;;;;;;;;;;;;-2.02;93.82;95642.05;109086;1274;22547;-82
2023/03/06 01:03:11;;;;;;;;;;;;;;;-2.01;93.49;95648.83;109117;1274;22528;-82
2023/03/06 01:05:41;;;;;;;;;;;;;;;-2.00;93.60;95653.58;109122;1274;25234;-81
2023/03/06 01:08:10;;;;;;;;;;;;;;;-1.98;93.67;95658.17;109111;1274;22492;-82
2023/03/06 01:10:40;;;;;;;;;;;;;;;-1.96;93.80;95663.67;109119;1272;22599;-82
2023/03/06 01:13:09;;;;;;;;;;;;;;;-1.92;93.63;95661.57;109052;1273;39245;-82
2023/03/06 01:15:38;;;;;;;;;;;;;;;-1.88;93.98;95660.35;109101;1274;22551;-81
2023/03/06 01:18:08;;;;;;;;;;;;;;;-1.91;93.66;95663.15;109072;1274;23753;-81
2023/03/06 01:20:38;;;;;;;;;;;;;;;-1.95;93.64;95660.83;109056;1274;22508;-81
2023/03/06 01:23:07;;;;;;;;;;;;;;;-1.97;93.88;95660.56;109052;1274;22503;-82
2023/03/06 01:25:36;;;;;;;;;;;;;;;-1.98;93.88;95659.06;109079;1267;22949;-82
2023/03/06 01:28:05;;;;;;;;;;;;;;;-2.04;94.31;95651.45;109093;1274;25211;-82
2023/03/06 01:30:34;;;;;;;;;;;;;;;-2.10;94.55;95647.66;109067;1274;22505;-82
2023/03/06 01:33:04;;;;;;;;;;;;;;;-2.14;94.69;95646.06;109116;1269;22511;-82
2023/03/06 01:35:33;;;;;;;;;;;;;;;-2.15;94.70;95645.83;109099;1266;22657;-82
2023/03/06 01:38:02;;;;;;;;;;;;;;;-2.10;94.65;95645.05;109090;1274;22445;-81
2023/03/06 01:40:32;;;;;;;;;;;;;;;-2.05;95.11;95643.74;109120;1272;22566;-82
2023/03/06 01:43:10;;;;;;;;;;;;;;;-1.98;94.96;95644.11;109021;1273;22557;-82
2023/03/06 01:45:56;;;;;;;;;;;;;;;-1.91;94.98;95642.30;109108;1273;22566;-82
2023/03/06 01:48:25;;;;;;;;;;;;;;;-1.86;94.89;95637.61;109110;1272;24925;-82
2023/03/06 01:50:55;;;;;;;;;;;;;;;-1.77;95.21;95639.69;109111;1274;22524;-82
2023/03/06 01:53:24;;;;;;;;;;;;;;;-1.67;94.89;95635.85;109060;1274;23332;-82
2023/03/06 01:55:54;;;;;;;;;;;;;;;-1.57;95.24;95636.91;109071;1274;22493;-82
2023/03/06 01:58:23;;;;;;;;;;;;;;;-1.51;94.92;95636.02;109053;1266;22719;-82
2023/03/06 02:00:53;;;;;;;;;;;;;;;-1.47;94.82;95633.30;109034;1262;22484;-82
2023/03/06 02:03:25;;;;;;;;;;;;;;;-1.44;94.68;95632.58;109050;1266;23112;-82
2023/03/06 02:05:54;;;;;;;;;;;;;;;-1.41;94.60;95628.80;109061;1266;22491;-82
2023/03/06 02:08:24;;;;;;;;;;;;;;;-1.38;94.38;95627.84;109078;1266;23847;-82
2023/03/06 02:10:58;;;;;;;;;;;;;;;-1.36;94.11;95630.68;109071;1274;22485;-82
2023/03/06 02:13:28;;;;;;;;;;;;;;;-1.35;93.86;95626.87;109094;1272;23284;-82
2023/03/06 02:15:57;;;;;;;;;;;;;;;-1.36;93.88;95624.25;109061;1273;22492;-82
2023/03/06 02:18:27;;;;;;;;;;;;;;;-1.37;93.81;95622.86;109091;1274;22553;-82
2023/03/06 02:20:57;;;;;;;;;;;;;;;-1.39;93.62;95623.52;109099;1274;23197;-82
2023/03/06 02:23:30;;;;;;;;;;;;;;;-1.42;93.84;95625.34;109116;1262;22524;-82
2023/03/06 02:26:00;;;;;;;;;;;;;;;-1.46;93.83;95626.41;109140;1270;24535;-82
2023/03/06 02:28:30;;;;;;;;;;;;;;;-1.47;93.73;95620.92;109131;1262;22484;-83
2023/03/06 02:30:59;;;;;;;;;;;;;;;-1.47;93.47;95621.77;109119;1271;23747;-83
2023/03/06 02:33:29;;;;;;;;;;;;;;;-1.46;93.46;95620.41;109101;1272;33276;-83
2023/03/06 02:35:59;;;;;;;;;;;;;;;-1.44;93.31;95621.19;109153;1274;22500;-82
2023/03/06 02:38:31;;;;;;;;;;;;;;;-1.45;93.19;95617.59;109113;1273;23668;-83
2023/03/06 02:41:01;;;;;;;;;;;;;;;-1.46;93.04;95615.70;109131;1274;22527;-83
2023/03/06 02:43:33;;;;;;;;;;;;;;;-1.49;93.20;95614.71;109091;1272;22496;-82
2023/03/06 02:46:02;;;;;;;;;;;;;;;-1.50;92.75;95617.02;109025;1275;23696;-82
2023/03/06 02:48:31;;;;;;;;;;;;;;;-1.54;92.98;95617.52;109161;1267;22515;-82
2023/03/06 02:51:00;;;;;;;;;;;;;;;-1.57;92.90;95620.48;109122;1274;22517;-83
2023/03/06 02:53:30;;;;;;;;;;;;;;;-1.60;92.75;95620.63;109088;1274;22508;-82
2023/03/06 02:55:59;;;;;;;;;;;;;;;-1.63;92.45;95616.79;109124;1273;24180;-82
2023/03/06 02:58:28;;;;;;;;;;;;;;;-1.66;92.27;95617.48;109109;1274;25396;-83
2023/03/06 03:00:57;;;;;;;;;;;;;;;-1.68;92.08;95618.33;109179;1274;22451;-82
2023/03/06 03:03:27;;;;;;;;;;;;;;;-1.71;91.86;95614.96;109136;1274;22506;-83
2023/03/06 03:05:56;;;;;;;;;;;;;;;-1.75;91.80;95618.31;109104;1274;22515;-82
2023/03/06 03:08:26;;;;;;;;;;;;;;;-1.81;91.62;95617.37;108971;1274;169280;-83
2023/03/06 03:10:55;;;;;;;;;;;;;;;-1.84;91.56;95621.27;109107;1274;22468;-83
2023/03/06 03:13:24;;;;;;;;;;;;;;;-1.89;91.55;95617.58;109068;1274;30737;-83
2023/03/06 03:16:01;;;;;;;;;;;;;;;-1.97;91.35;95614.66;109093;1274;22516;-83
2023/03/06 03:18:31;;;;;;;;;;;;;;;-2.06;91.55;95608.77;109068;1274;22459;-83
2023/03/06 03:21:00;;;;;;;;;;;;;;;-2.17;91.12;95607.09;109093;1266;25392;-83
2023/03/06 03:23:29;;;;;;;;;;;;;;;-2.23;91.10;95609.82;109055;1274;22564;-83
2023/03/06 03:26:07;;;;;;;;;;;;;;;-2.26;91.13;95608.94;109047;1274;22507;-83
2023/03/06 03:28:36;;;;;;;;;;;;;;;-2.32;91.03;95608.55;109115;1273;22494;-83
2023/03/06 03:31:07;;;;;;;;;;;;;;;-2.37;90.80;95609.11;109101;1274;22537;-83
2023/03/06 03:33:36;;;;;;;;;;;;;;;-2.41;90.69;95603.59;109017;1268;22435;-83
2023/03/06 03:36:06;;;;;;;;;;;;;;;-2.43;90.78;95601.51;109037;1273;22484;-83
2023/03/06 03:38:37;;;;;;;;;;;;;;;-2.49;90.55;95600.41;109104;1272;22499;-83
2023/03/06 03:41:06;;;;;;;;;;;;;;;-2.52;90.77;95597.39;109065;1274;23708;-83
2023/03/06 03:43:35;;;;;;;;;;;;;;;-2.51;91.10;95597.80;109014;1273;26148;-83
2023/03/06 03:46:05;;;;;;;;;;;;;;;-2.46;91.26;95597.34;109069;1274;24253;-83
2023/03/06 03:48:34;;;;;;;;;;;;;;;-2.41;91.42;95596.33;109110;1274;22567;-83
2023/03/06 03:51:06;;;;;;;;;;;;;;;-2.28;92.02;95595.76;109063;1274;22483;-83
2023/03/06 03:53:35;;;;;;;;;;;;;;;-2.19;92.25;95592.55;109044;1272;22482;-82
2023/03/06 03:56:05;;;;;;;;;;;;;;;-2.10;92.13;95586.02;109118;1274;22501;-83
2023/03/06 03:58:34;;;;;;;;;;;;;;;-2.01;92.16;95583.80;109105;1273;25265;-82
2023/03/06 04:01:04;;;;;;;;;;;;;;;-1.98;92.10;95584.42;109064;1274;22515;-83
2023/03/06 04:03:33;;;;;;;;;;;;;;;-1.97;92.01;95582.54;109074;1274;22502;-83
2023/03/06 04:06:02;;;;;;;;;;;;;;;-1.96;91.99;95584.13;109111;1274;22491;-83
2023/03/06 04:08:32;;;;;;;;;;;;;;;-1.97;92.08;95580.90;109081;1273;23840;-83
2023/03/06 04:11:01;;;;;;;;;;;;;;;-1.96;91.77;95584.77;109050;1272;25466;-83
2023/03/06 04:13:31;;;;;;;;;;;;;;;-1.95;91.77;95582.34;109024;1270;73678;-83
2023/03/06 04:16:00;;;;;;;;;;;;;;;-1.91;92.22;95584.40;109047;1274;22488;-83
2023/03/06 04:18:30;;;;;;;;;;;;;;;-1.88;92.10;95585.34;109063;1274;22449;-83
2023/03/06 04:20:59;;;;;;;;;;;;;;;-1.85;92.27;95581.00;109088;1274;22496;-83
2023/03/06 04:23:29;;;;;;;;;;;;;;;-1.80;92.49;95583.51;109049;1274;22558;-83
2023/03/06 04:25:58;;;;;;;;;;;;;;;-1.74;92.55;95587.89;109085;1274;24218;-83
2023/03/06 04:28:28;;;;;;;;;;;;;;;-1.70;92.43;95581.97;109076;1271;23176;-83
2023/03/06 04:30:57;;;;;;;;;;;;;;;-1.68;92.41;95579.95;109063;1271;22525;-83
2023/03/06 04:33:27;;;;;;;;;;;;;;;-1.65;92.20;95579.54;109079;1273;25400;-82
2023/03/06 04:35:57;;;;;;;;;;;;;;;-1.64;92.00;95580.39;109088;1273;23281;-82
2023/03/06 04:38:26;;;;;;;;;;;;;;;-1.66;91.83;95577.91;109101;1274;23227;-82
2023/03/06 04:40:55;;;;;;;;;;;;;;;-1.63;92.12;95567.66;109078;1273;22497;-82
2023/03/06 04:43:25;;;;;;;;;;;;;;;-1.58;92.07;95572.50;109037;1274;22737;-82
2023/03/06 04:45:54;;;;;;;;;;;;;;;-1.53;91.98;95568.73;109095;1274;23293;-82
2023/03/06 04:48:23;;;;;;;;;;;;;;;-1.52;91.75;95566.52;109070;1274;22542;-81
2023/03/06 04:50:53;;;;;;;;;;;;;;;-1.52;91.64;95561.20;109098;1274;22624;-82
2023/03/06 04:53:22;;;;;;;;;;;;;;;-1.51;91.71;95562.53;108997;1271;22601;-81
2023/03/06 04:55:52;;;;;;;;;;;;;;;-1.52;91.35;95565.05;109086;1274;22482;-81
2023/03/06 04:58:21;;;;;;;;;;;;;;;-1.52;91.55;95565.52;109061;1267;22442;-82
2023/03/06 05:00:50;;;;;;;;;;;;;;;-1.53;91.47;95569.36;109051;1274;23363;-81
2023/03/06 05:03:20;;;;;;;;;;;;;;;-1.53;91.40;95571.37;109082;1273;22548;-82
2023/03/06 05:05:49;;;;;;;;;;;;;;;-1.55;91.21;95569.36;109069;1274;25413;-82
2023/03/06 05:08:19;;;;;;;;;;;;;;;-1.54;90.96;95568.45;109062;1274;22539;-82
2023/03/06 05:10:54;;;;;;;;;;;;;;;-1.49;90.99;95571.92;109072;1274;22546;-81
2023/03/06 05:13:23;;;;;;;;;;;;;;;-1.44;90.77;95577.98;109118;1274;22456;-82
2023/03/06 05:15:53;;;;;;;;;;;;;;;-1.42;90.55;95575.31;109092;1274;22529;-81
2023/03/06 05:18:23;;;;;;;;;;;;;;;-1.41;90.29;95573.96;109073;1273;25279;-82
2023/03/06 05:20:52;;;;;;;;;;;;;;;-1.39;90.47;95572.08;109062;1274;22453;-82
2023/03/06 05:23:21;;;;;;;;;;;;;;;-1.38;90.08;95574.25;109063;1273;22515;-82
2023/03/06 05:25:51;;;;;;;;;;;;;;;-1.35;89.92;95576.23;109044;1270;22501;-82
2023/03/06 05:28:20;;;;;;;;;;;;;;;-1.33;90.14;95576.05;109043;1274;24219;-82
2023/03/06 05:30:50;;;;;;;;;;;;;;;-1.31;89.72;95571.46;109075;1274;22509;-81
2023/03/06 05:33:19;;;;;;;;;;;;;;;-1.31;89.80;95568.42;109035;1274;22718;-81
2023/03/06 05:35:49;;;;;;;;;;;;;;;-1.34;89.47;95566.88;109064;1270;25083;-81
2023/03/06 05:38:19;;;;;;;;;;;;;;;-1.37;89.48;95567.96;109045;1267;24425;-81
2023/03/06 05:40:48;;;;;;;;;;;;;;;-1.40;89.35;95562.69;109050;1275;22483;-81
2023/03/06 05:43:17;;;;;;;;;;;;;;;-1.42;89.60;95564.87;108990;1273;22508;-81
2023/03/06 05:45:49;;;;;;;;;;;;;;;-1.44;89.35;95568.23;109060;1274;22554;-81
2023/03/06 05:48:18;;;;;;;;;;;;;;;-1.46;88.96;95564.71;109034;1273;22490;-81
2023/03/06 05:50:54;;;;;;;;;;;;;;;-1.43;88.83;95568.29;109065;1274;25406;-81
2023/03/06 05:53:25;;;;;;;;;;;;;;;-1.42;88.72;95576.88;109028;1273;25910;-81
2023/03/06 05:55:59;;;;;;;;;;;;;;;-1.42;88.45;95578.82;109055;1274;22502;-81
2023/03/06 05:58:29;;;;;;;;;;;;;;;-1.40;88.16;95583.85;109025;1274;22556;-81
2023/03/06 06:00:58;;;;;;;;;;;;;;;-1.39;88.28;95587.89;109039;1273;22503;-82
2023/03/06 06:03:28;;;;;;;;;;;;;;;-1.38;88.11;95585.69;109003;1273;22590;-81
2023/03/06 06:05:57;;;;;;;;;;;;;;;-1.33;87.88;95586.23;109075;1267;23453;-83
2023/03/06 06:08:27;;;;;;;;;;;;;;;-1.22;87.83;95584.23;109071;1267;23647;-83
2023/03/06 06:10:56;;;;;;;;;;;;;;;-1.11;87.56;95580.61;109081;1267;22496;-83
2023/03/06 06:13:25;;;;;;;;;;;;;;;-1.01;87.38;95574.89;109076;1271;25401;-82
2023/03/06 06:15:55;;;;;;;;;;;;;;;-0.88;86.85;95573.98;109093;1274;22553;-82
2023/03/06 06:18:24;;;;;;;;;;;;;;;-0.64;86.14;95569.54;109066;1274;22556;-82
2023/03/06 06:20:53;;;;;;;;;;;;;;;-0.40;85.08;95575.27;109071;1274;23777;-82
2023/03/06 06:23:23;;;;;;;;;;;;;;;0.16;84.96;95579.73;109068;1270;23255;-82
2023/03/06 06:25:52;;;;;;;;;;;;;;;0.97;83.41;95574.94;109082;1271;22487;-82
2023/03/06 06:28:21;;;;;;;;;;;;;;;1.11;80.90;95582.09;109089;1274;22495;-83
2023/03/06 06:30:51;;;;;;;;;;;;;;;0.90;80.31;95585.87;109051;1273;24289;-82
2023/03/06 06:33:21;;;;;;;;;;;;;;;1.01;80.57;95589.27;109073;1273;22504;-83
2023/03/06 06:35:50;;;;;;;;;;;;;;;1.25;80.50;95593.42;109047;1274;22475;-82
2023/03/06 06:38:20;;;;;;;;;;;;;;;1.36;79.74;95591.77;109097;1274;25371;-82
2023/03/06 06:40:49;;;;;;;;;;;;;;;1.21;78.58;95590.04;109076;1274;22463;-82
2023/03/06 06:43:18;;;;;;;;;;;;;;;0.92;78.01;95586.57;109009;1267;22501;-82
2023/03/06 06:45:48;;;;;;;;;;;;;;;0.76;77.84;95588.08;109055;1274;23840;-82
2023/03/06 06:48:17;;;;;;;;;;;;;;;0.79;78.82;95586.29;109096;1267;22547;-82
2023/03/06 06:50:54;;;;;;;;;;;;;;;1.05;78.66;95585.83;109123;1267;22532;-82
2023/03/06 06:53:24;;;;;;;;;;;;;;;1.13;78.47;95580.18;109066;1273;22567;-82
2023/03/06 06:55:53;;;;;;;;;;;;;;;1.24;78.60;95572.31;109078;1274;22534;-83
2023/03/06 06:58:22;;;;;;;;;;;;;;;1.37;78.23;95564.89;109088;1274;22511;-82
2023/03/06 07:00:52;;;;;;;;;;;;;;;1.39;77.43;95564.07;109100;1274;25268;-83
2023/03/06 07:03:21;;;;;;;;;;;;;;;1.15;75.62;95559.23;109038;1267;23779;-82
2023/03/06 07:05:56;;;;;;;;;;;;;;;1.01;76.02;95557.04;109043;1274;22527;-82
2023/03/06 07:08:25;;;;;;;;;;;;;;;0.98;75.63;95552.71;109066;1274;22704;-82
2023/03/06 07:10:55;;;;;;;;;;;;;;;0.86;74.43;95552.83;109085;1274;24314;-83
2023/03/06 07:13:24;;;;;;;;;;;;;;;0.73;74.55;95553.09;109058;1274;22539;-83
2023/03/06 07:15:54;;;;;;;;;;;;;;;0.71;74.84;95552.48;109096;1270;22501;-83
2023/03/06 07:18:24;;;;;;;;;;;;;;;0.66;74.58;95558.52;109058;1274;22513;-82
2023/03/06 07:20:54;;;;;;;;;;;;;;;0.66;74.48;95559.94;109088;1267;23529;-83
2023/03/06 07:23:25;;;;;;;;;;;;;;;0.65;74.19;95563.45;109067;1273;22504;-83
2023/03/06 07:25:55;;;;;;;;;;;;;;;0.72;74.26;95566.70;109071;1267;22636;-82
2023/03/06 07:28:24;;;;;;;;;;;;;;;0.77;73.77;95570.92;109072;1273;22543;-83
2023/03/06 07:30:54;;;;;;;;;;;;;;;0.84;73.54;95566.84;109068;1274;22541;-83
2023/03/06 07:33:23;;;;;;;;;;;;;;;0.89;72.89;95568.41;109049;1270;22540;-83
2023/03/06 07:35:53;;;;;;;;;;;;;;;1.03;72.56;95565.88;109087;1274;22502;-82
2023/03/06 07:38:22;;;;;;;;;;;;;;;1.06;71.96;95570.45;109073;1274;23822;-83
2023/03/06 07:40:52;;;;;;;;;;;;;;;1.10;71.13;95572.52;109094;1267;22874;-83
2023/03/06 07:43:21;;;;;;;;;;;;;;;1.13;71.29;95579.71;109012;1274;40968;-83
2023/03/06 07:45:57;;;;;;;;;;;;;;;1.31;70.99;95584.35;109088;1273;25224;-83
2023/03/06 07:48:29;;;;;;;;;;;;;;;1.64;70.71;95587.94;109086;1267;25214;-83
2023/03/06 07:51:00;;;;;;;;;;;;;;;1.89;70.65;95587.85;109075;1274;24209;-83
2023/03/06 07:53:30;;;;;;;;;;;;;;;2.17;69.99;95588.81;109090;1270;22503;-84
2023/03/06 07:56:00;;;;;;;;;;;;;;;2.42;68.74;95589.94;109012;1274;22687;-84
2023/03/06 07:58:29;;;;;;;;;;;;;;;2.67;67.90;95589.73;109073;1267;22527;-84
2023/03/06 08:01:02;;;;;;;;;;;;;;;2.93;66.51;95584.38;109128;1274;22494;-84
2023/03/06 08:03:32;;;;;;;;;;;;;;;3.13;65.17;95581.54;109033;1266;22493;-84
2023/03/06 08:06:13;;;;;;;;;;;;;;;3.56;64.30;95571.77;109102;1273;22527;-85
2023/03/06 08:08:43;;;;;;;;;;;;;;;4.19;64.20;95574.77;109088;1266;24151;-84
2023/03/06 08:11:14;;;;;;;;;;;;;;;4.87;61.19;95576.77;109080;1273;22528;-84
2023/03/06 08:13:43;;;;;;;;;;;;;;;4.99;57.79;95575.95;109058;1266;22851;-84
2023/03/06 08:16:13;;;;;;;;;;;;;;;4.71;56.96;95571.09;109098;1266;22483;-84
2023/03/06 08:18:42;;;;;;;;;;;;;;;4.50;56.83;95572.48;109074;1273;24226;-84
2023/03/06 08:21:15;;;;;;;;;;;;;;;4.54;56.93;95573.02;109037;1273;22576;-84
2023/03/06 08:23:44;;;;;;;;;;;;;;;5.01;56.72;95581.14;109059;1266;22610;-84
2023/03/06 08:26:15;;;;;;;;;;;;;;;5.32;54.92;95575.88;109070;1273;22569;-84
2023/03/06 08:28:44;;;;;;;;;;;;;;;5.60;54.84;95572.69;109062;1273;23675;-85
2023/03/06 08:31:21;;;;;;;;;;;;;;;5.80;53.69;95566.10;109055;1273;24196;-85
2023/03/06 08:33:50;;;;;;;;;;;;;;;5.98;52.23;95570.02;109032;1273;22505;-85
2023/03/06 08:36:20;;;;;;;;;;;;;;;6.21;51.82;95573.48;109066;1273;25413;-85
2023/03/06 08:38:50;;;;;;;;;;;;;;;6.35;52.79;95583.02;109078;1273;24212;-85
2023/03/06 08:41:20;;;;;;;;;;;;;;;6.95;50.18;95571.36;109086;1273;22855;-85
2023/03/06 08:43:50;;;;;;;;;;;;;;;6.93;50.73;95583.88;109030;1274;22526;-86
2023/03/06 08:46:22;;;;;;;;;;;;;;;6.72;49.75;95585.02;109043;1273;22510;-85
2023/03/06 08:48:51;;;;;;;;;;;;;;;6.05;51.46;95584.54;109050;1273;22605;-85
2023/03/06 08:51:21;;;;;;;;;;;;;;;6.22;53.39;95588.46;109065;1273;24809;-85
2023/03/06 08:53:51;;;;;;;;;;;;;;;6.82;52.82;95591.94;109078;1274;22489;-84
2023/03/06 08:56:21;;;;;;;;;;;;;;;7.06;52.08;95585.90;109105;1267;24210;-84
2023/03/06 08:58:51;;;;;;;;;;;;;;;6.81;51.19;95584.04;109091;1267;22489;-83
2023/03/06 09:01:21;;;;;;;;;;;;;;;6.14;50.24;95576.29;109082;1273;22514;-84
2023/03/06 09:03:53;;;;;;;;;;;;;;;5.45;50.77;95589.27;109056;1270;22493;-84
2023/03/06 09:06:25;;;;;;;;;;;;;;;5.09;52.01;95587.59;109068;1270;22502;-83
2023/03/06 09:08:54;;;;;;;;;;;;;;;4.78;53.07;95597.85;109016;1273;22548;-83
2023/03/06 09:11:25;;;;;;;;;;;;;;;4.47;52.29;95589.86;109120;1269;24212;-83
2023/03/06 09:13:55;;;;;;;;;;;;;;;4.35;53.92;95598.80;109066;1266;22650;-84
2023/03/06 09:16:24;;;;;;;;;;;;;;;4.71;55.02;95597.23;109097;1269;22433;-83
2023/03/06 09:18:54;;;;;;;;;;;;;;;4.86;55.15;95601.45;109123;1270;22591;-83
2023/03/06 09:21:24;;;;;;;;;;;;;;;4.76;54.09;95598.07;109048;1274;23860;-83
2023/03/06 09:23:53;;;;;;;;;;;;;;;4.44;53.93;95597.74;109024;1272;42522;-83
2023/03/06 09:26:23;;;;;;;;;;;;;;;4.33;54.42;95589.94;109097;1270;23168;-83
2023/03/06 09:28:52;;;;;;;;;;;;;;;4.24;54.59;95591.73;109076;1270;23778;-83
2023/03/06 09:31:22;;;;;;;;;;;;;;;4.22;55.03;95591.70;109068;1273;22576;-83
2023/03/06 09:33:51;;;;;;;;;;;;;;;4.50;56.11;95592.33;109067;1267;22996;-83
2023/03/06 09:36:22;;;;;;;;;;;;;;;4.86;55.59;95596.15;109076;1273;24213;-83
2023/03/06 09:38:51;;;;;;;;;;;;;;;4.97;55.00;95594.50;109050;1270;22502;-84
2023/03/06 09:41:32;;;;;;;;;;;;;;;4.85;54.80;95595.52;109095;1273;24023;-83
2023/03/06 09:44:04;;;;;;;;;;;;;;;4.93;54.95;95585.16;109020;1273;22700;-83
2023/03/06 09:46:42;;;;;;;;;;;;;;;4.89;54.41;95587.11;109040;1274;22563;-84
2023/03/06 09:49:31;;;;;;;;;;;;;;;4.95;53.96;95587.00;109026;1273;22481;-83
2023/03/06 09:52:05;;;;;;;;;;;;;;;5.07;55.00;95581.76;109012;1274;25211;-83
2023/03/06 09:54:42;;;;;;;;;;;;;;;4.92;53.04;95579.91;109069;1267;22559;-83
2023/03/06 09:57:18;;;;;;;;;;;;;;;4.57;52.55;95571.86;109067;1273;22549;-84
2023/03/06 09:59:50;;;;;;;;;;;;;;;4.20;52.29;95568.89;109058;1273;22433;-83
2023/03/06 10:02:25;;;;;;;;;;;;;;;4.02;52.51;95567.73;109049;1268;38458;-83
2023/03/06 10:05:00;;;;;;;;;;;;;;;4.14;52.60;95568.21;109073;1270;22486;-83
2023/03/06 10:07:36;;;;;;;;;;;;;;;4.43;54.36;95570.29;109075;1266;23838;-83
2023/03/06 10:10:07;;;;;;;;;;;;;;;4.68;53.48;95564.38;109071;1273;25424;-82
2023/03/06 10:12:40;;;;;;;;;;;;;;;4.70;52.23;95562.44;109065;1273;22454;-83
2023/03/06 10:15:14;;;;;;;;;;;;;;;4.64;53.19;95562.64;109079;1267;22905;-83
2023/03/06 10:17:44;;;;;;;;;;;;;;;4.65;53.88;95556.57;109081;1267;24308;-83
2023/03/06 10:20:18;;;;;;;;;;;;;;;4.69;54.05;95557.02;109053;1273;22585;-83
2023/03/06 10:22:52;;;;;;;;;;;;;;;4.64;52.08;95546.95;109071;1273;24263;-83
2023/03/06 10:25:24;;;;;;;;;;;;;;;4.49;51.58;95549.13;109058;1273;22503;-83
2023/03/06 10:27:57;;;;;;;;;;;;;;;4.62;52.34;95539.77;109086;1267;24185;-83
2023/03/06 10:30:38;;;;;;;;;;;;;;;4.85;52.72;95538.17;109106;1273;22523;-83
2023/03/06 10:33:15;;;;;;;;;;;;;;;4.82;51.29;95533.20;109067;1273;22509;-83
2023/03/06 10:35:49;;;;;;;;;;;;;;;4.67;51.25;95529.77;109103;1273;25336;-83
2023/03/06 10:38:21;;;;;;;;;;;;;;;4.74;52.65;95527.09;109086;1267;24045;-83
2023/03/06 10:40:55;;;;;;;;;;;;;;;4.96;52.80;95526.33;109059;1273;22990;-83
2023/03/06 10:43:25;;;;;;;;;;;;;;;4.91;52.31;95528.02;109043;1273;22494;-83
2023/03/06 10:45:55;;;;;;;;;;;;;;;4.94;51.80;95524.28;109120;1273;22560;-83
2023/03/06 10:48:25;;;;;;;;;;;;;;;4.98;51.62;95516.17;109074;1273;22482;-83
2023/03/06 10:51:09;;;;;;;;;;;;;;;4.97;50.97;95511.24;109049;1273;22505;-83
2023/03/06 10:53:48;;;;;;;;;;;;;;;4.96;50.25;95511.95;109077;1267;22822;-83
2023/03/06 10:56:25;;;;;;;;;;;;;;;5.17;51.71;95507.48;109068;1273;22524;-83
2023/03/06 10:59:06;;;;;;;;;;;;;;;5.30;50.38;95502.04;109083;1273;24402;-82
2023/03/06 11:01:36;;;;;;;;;;;;;;;5.18;49.94;95500.95;109086;1273;22526;-83
2023/03/06 11:04:16;;;;;;;;;;;;;;;4.88;48.68;95497.84;109022;1273;22535;-83
2023/03/06 11:06:46;;;;;;;;;;;;;;;4.62;48.80;95493.98;109094;1266;22961;-82
2023/03/06 11:09:21;;;;;;;;;;;;;;;4.77;50.31;95496.77;109069;1267;22608;-82
2023/03/06 11:11:50;;;;;;;;;;;;;;;5.24;50.55;95490.47;109091;1267;22498;-82
2023/03/06 11:14:21;;;;;;;;;;;;;;;5.55;49.50;95486.70;109073;1266;25378;-82
2023/03/06 11:16:52;;;;;;;;;;;;;;;5.73;48.18;95481.15;109004;1273;23933;-82
2023/03/06 11:19:25;;;;;;;;;;;;;;;5.74;48.87;95485.72;109064;1273;25253;-82
2023/03/06 11:22:01;;;;;;;;;;;;;;;5.77;48.78;95488.96;109008;1267;22562;-83
2023/03/06 11:24:35;;;;;;;;;;;;;;;5.82;48.37;95479.58;109124;1273;25237;-82
2023/03/06 11:27:12;;;;;;;;;;;;;;;5.68;47.87;95474.01;109073;1267;22508;-83
2023/03/06 11:29:42;;;;;;;;;;;;;;;5.57;47.27;95475.12;109087;1267;23849;-82
2023/03/06 11:32:16;;;;;;;;;;;;;;;5.46;47.46;95474.77;109067;1273;23250;-82
2023/03/06 11:34:48;;;;;;;;;;;;;;;5.43;48.20;95464.07;109145;1273;22461;-83
2023/03/06 11:37:23;;;;;;;;;;;;;;;5.49;47.74;95467.92;109104;1273;25349;-82
2023/03/06 11:39:56;;;;;;;;;;;;;;;5.48;47.01;95463.26;109075;1262;22474;-82
2023/03/06 11:42:28;;;;;;;;;;;;;;;5.34;47.15;95462.51;109068;1266;55662;-82
2023/03/06 11:45:04;;;;;;;;;;;;;;;5.60;48.20;95446.92;109095;1274;23665;-82
2023/03/06 11:47:36;;;;;;;;;;;;;;;5.87;47.33;95440.55;109107;1273;23875;-82
2023/03/06 11:50:13;;;;;;;;;;;;;;;5.98;46.16;95438.21;109082;1273;25272;-83
2023/03/06 11:52:48;;;;;;;;;;;;;;;5.85;45.62;95443.20;109055;1273;23646;-83
2023/03/06 11:55:22;;;;;;;;;;;;;;;5.66;44.84;95446.52;109086;1274;22546;-82
2023/03/06 11:57:56;;;;;;;;;;;;;;;5.64;45.76;95441.30;109056;1273;25405;-82
2023/03/06 12:00:33;;;;;;;;;;;;;;;5.77;45.42;95434.11;109107;1274;22458;-82
2023/03/06 12:03:21;;;;;;;;;;;;;;;5.73;44.53;95427.24;109056;1273;28130;-82
2023/03/06 12:05:54;;;;;;;;;;;;;;;5.53;44.91;95427.41;109066;1267;24000;-82
2023/03/06 12:08:37;;;;;;;;;;;;;;;5.34;43.66;95420.04;109089;1273;23711;-81
2023/03/06 12:11:14;;;;;;;;;;;;;;;5.17;43.13;95417.89;109085;1273;22641;-81
2023/03/06 12:13:50;;;;;;;;;;;;;;;5.22;43.25;95416.13;109041;1273;22540;-81
2023/03/06 12:16:37;;;;;;;;;;;;;;;5.36;43.62;95417.96;109058;1273;22586;-81
2023/03/06 12:19:13;;;;;;;;;;;;;;;5.39;43.30;95414.11;109035;1273;22993;-81
2023/03/06 12:21:49;;;;;;;;;;;;;;;5.29;43.52;95408.13;109093;1273;22488;-81
2023/03/06 12:24:29;;;;;;;;;;;;;;;5.21;43.50;95412.82;109042;1273;22858;-82
2023/03/06 12:27:03;;;;;;;;;;;;;;;5.13;43.50;95404.95;109088;1273;22499;-81
2023/03/06 12:29:47;;;;;;;;;;;;;;;5.15;44.01;95400.15;109150;1273;22495;-81
2023/03/06 12:32:25;;;;;;;;;;;;;;;5.20;44.56;95400.37;109009;1267;54192;-81
2023/03/06 12:35:08;;;;;;;;;;;;;;;5.29;45.18;95401.04;109047;1267;22544;-81
2023/03/06 12:37:49;;;;;;;;;;;;;;;5.41;44.75;95402.86;109089;1273;22602;-81
2023/03/06 12:40:37;;;;;;;;;;;;;;;5.42;44.09;95404.58;109052;1273;22829;-81
2023/03/06 12:43:18;;;;;;;;;;;;;;;5.42;43.40;95399.91;109043;1267;22488;-81
2023/03/06 12:45:49;;;;;;;;;;;;;;;5.29;42.99;95397.79;109104;1273;22501;-81
2023/03/06 12:48:21;;;;;;;;;;;;;;;5.31;43.51;95397.13;109111;1266;22454;-81
2023/03/06 12:50:51;;;;;;;;;;;;;;;5.29;43.34;95390.64;109096;1273;22717;-81
2023/03/06 12:53:23;;;;;;;;;;;;;;;5.23;42.42;95386.02;109077;1273;22512;-81
2023/03/06 12:55:54;;;;;;;;;;;;;;;5.18;42.71;95383.04;109021;1269;22561;-81
2023/03/06 12:58:47;;;;;;;;;;;;;;;5.20;42.16;95383.75;109111;1266;22498;-81
2023/03/06 13:01:28;;;;;;;;;;;;;;;5.16;42.22;95384.11;109115;1273;23980;-81
2023/03/06 13:04:05;;;;;;;;;;;;;;;5.16;42.79;95382.42;109054;1269;22488;-81